Penn Run, Pennsylvania
Current Conditions -  °F | °C
As of 11:35 AM on Monday 24 Nov 2014 (Local Time) from KIDI Reporting Station
Broken Clouds Broken Clouds  
Wind Chill: 68°   Ceiling: 7500
Heat Index: 68°   Visibility: 10mi
Dew Point: 45°   Wind: 20mph
Humidity: 43%   Direction: 230°SW
Pressure: 29.47"   Gusts: 38mph
Location:  40.62°N, 79.01°W
Report Text: KIDI 241635Z AUTO 23017G33KT 10SM SCT060 BKN075 20/07 A2947 RMK A01
Loading
Personal Weather Stations






























Interactive Weather Map New forecast layout! Learn more

10-Day Weather Forecast

Advertisements
Track Severe Weather on mobile